Time;durP1;ratioP1;P1;durP2;ratioP2;P2;SDS_P1;SDS_P2;PMS_P1;PMS_P2;Temp;Humidity;BMP_temperature;BMP_pressure;BME280_temperature;BME280_humidity;BME280_pressure;Samples;Min_cycle;Max_cycle;Signal;HPM_P1;HPM_P2
2023/09/01 00:00:15;;;;;;;11.68;7.82;;;537.60;2406.40;;;;;;5053063;28;20029;-73
2023/09/01 00:02:40;;;;;;;11.13;8.65;;;512.90;2380.80;;;;;;5054591;28;20025;-73
2023/09/01 00:05:07;;;;;;;12.13;9.57;;;512.80;2380.80;;;;;;5055055;28;20389;-72
2023/09/01 00:07:33;;;;;;;11.23;8.85;;;512.80;2380.80;;;;;;5054776;28;20024;-71
2023/09/01 00:09:59;;;;;;;12.38;9.40;;;512.70;2380.80;;;;;;5054702;28;20033;-70
2023/09/01 00:12:25;;;;;;;10.55;8.60;;;512.70;2380.80;;;;;;5054626;28;20071;-71
2023/09/01 00:14:52;;;;;;;13.13;9.98;;;512.80;2380.80;;;;;;5054507;28;20512;-71
2023/09/01 00:17:18;;;;;;;12.88;10.13;;;512.90;2380.80;;;;;;5054630;28;20029;-71
2023/09/01 00:19:43;;;;;;;14.00;10.00;;;512.90;2380.80;;;;;;5054516;28;20025;-71
2023/09/01 00:22:09;;;;;;;12.65;9.38;;;512.90;2380.80;;;;;;5054594;28;20470;-71
2023/09/01 00:24:36;;;;;;;13.05;10.07;;;512.80;2380.80;;;;;;5054499;28;20021;-71
2023/09/01 00:27:02;;;;;;;11.82;9.52;;;512.90;2380.80;;;;;;5054272;28;20032;-72
2023/09/01 00:29:28;;;;;;;11.02;9.75;;;512.90;2380.80;;;;;;5054199;28;20060;-72
2023/09/01 00:31:54;;;;;;;11.45;8.38;;;512.90;2380.80;;;;;;5054139;28;20053;-70
2023/09/01 00:34:20;;;;;;;12.02;9.60;;;512.90;2380.80;;;;;;5054060;28;20401;-72
2023/09/01 00:36:49;;;;;;;14.80;9.50;;;512.90;2380.80;;;;;;5054288;28;20032;-72
2023/09/01 00:39:14;;;;;;;15.02;10.23;;;512.90;2380.80;;;;;;5054308;28;20373;-72
2023/09/01 00:41:40;;;;;;;14.10;10.00;;;512.90;2380.80;;;;;;5054084;28;20025;-71
2023/09/01 00:44:06;;;;;;;13.10;9.00;;;512.80;2380.80;;;;;;5054020;28;20025;-71
2023/09/01 00:46:32;;;;;;;13.07;9.57;;;512.90;2380.80;;;;;;5054099;28;20032;-71
2023/09/01 00:48:58;;;;;;;13.43;9.05;;;512.90;2380.80;;;;;;5053879;28;20104;-72
2023/09/01 00:51:30;;;;;;;11.93;9.23;;;512.80;2380.80;;;;;;5052793;28;20029;-72
2023/09/01 00:53:56;;;;;;;12.60;9.80;;;512.70;2380.80;;;;;;5053748;28;20065;-75
2023/09/01 00:56:22;;;;;;;10.90;9.00;;;512.60;2380.80;;;;;;5053889;28;20047;-71
2023/09/01 00:58:48;;;;;;;13.63;9.45;;;512.60;2380.80;;;;;;5053710;28;20461;-71
2023/09/01 01:01:13;;;;;;;13.77;9.55;;;512.70;2380.80;;;;;;5053663;28;20120;-71
2023/09/01 01:03:40;;;;;;;14.32;9.60;;;512.70;2380.80;;;;;;5053624;28;20163;-71
2023/09/01 01:06:12;;;;;;;11.35;9.35;;;512.80;2380.80;;;;;;5053804;28;20053;-72
2023/09/01 01:08:40;;;;;;;13.85;10.35;;;512.60;2380.80;;;;;;5053997;28;20024;-72
2023/09/01 01:11:14;;;;;;;16.08;10.10;;;512.60;2380.80;;;;;;5052742;28;20025;-72
2023/09/01 01:13:46;;;;;;;12.10;9.45;;;512.60;2380.80;;;;;;5053208;28;20473;-71
2023/09/01 01:16:15;;;;;;;12.98;9.70;;;512.50;2380.80;;;;;;5053575;28;20469;-71
2023/09/01 01:18:42;;;;;;;14.50;10.00;;;512.40;2380.80;;;;;;5053305;28;20481;-71
2023/09/01 01:21:19;;;;;;;13.82;9.57;;;512.40;2380.80;;;;;;5053578;28;20470;-70
2023/09/01 01:23:45;;;;;;;13.07;9.52;;;512.30;2380.80;;;;;;5053271;28;20021;-72
2023/09/01 01:26:15;;;;;;;14.18;10.30;;;512.20;2380.80;;;;;;5053285;28;20100;-71
2023/09/01 01:28:40;;;;;;;17.38;10.07;;;512.20;2380.80;;;;;;5053359;28;20032;-72
2023/09/01 01:31:06;;;;;;;11.70;10.27;;;512.10;2380.80;;;;;;5053019;28;20033;-72
2023/09/01 01:33:59;;;;;;;14.10;10.80;;;512.00;2380.80;;;;;;5053103;28;20037;-72
2023/09/01 01:36:53;;;;;;;12.82;10.60;;;512.00;2380.80;;;;;;5053182;28;20021;-71
2023/09/01 01:39:26;;;;;;;23.95;10.68;;;512.00;2380.80;;;;;;5051965;28;20449;-71
2023/09/01 01:42:01;;;;;;;14.55;10.52;;;512.20;2380.80;;;;;;5053181;28;20078;-71
2023/09/01 01:44:33;;;;;;;12.63;10.50;;;512.10;2380.80;;;;;;5053280;28;20366;-72
2023/09/01 01:47:00;;;;;;;15.55;10.23;;;512.00;2380.80;;;;;;5053023;28;20083;-72
2023/09/01 01:49:28;;;;;;;12.82;10.82;;;487.30;2380.80;;;;;;5052877;28;20071;-71
2023/09/01 01:51:53;;;;;;;12.73;10.30;;;512.00;2380.80;;;;;;5053048;28;20083;-71
2023/09/01 01:54:19;;;;;;;18.77;11.35;;;512.10;2380.80;;;;;;5053071;28;20037;-71
2023/09/01 01:56:45;;;;;;;13.02;10.75;;;512.10;2380.80;;;;;;5052840;28;20032;-71
2023/09/01 01:59:10;;;;;;;12.05;9.73;;;512.10;2380.80;;;;;;5053117;28;20036;-71
2023/09/01 02:01:36;;;;;;;16.15;11.07;;;512.10;2380.80;;;;;;5052993;28;20025;-71
2023/09/01 02:04:05;;;;;;;14.80;10.05;;;512.10;2380.80;;;;;;5052748;28;20033;-71
2023/09/01 02:06:30;;;;;;;14.68;9.93;;;512.00;2380.80;;;;;;5052855;28;20084;-71
2023/09/01 02:08:56;;;;;;;16.83;9.93;;;512.00;2380.80;;;;;;5052845;28;20075;-71
2023/09/01 02:11:22;;;;;;;14.07;9.73;;;512.10;2380.80;;;;;;5051261;28;20037;-73
2023/09/01 02:13:48;;;;;;;19.20;10.93;;;512.10;2380.80;;;;;;5052706;28;20094;-73
2023/09/01 02:16:14;;;;;;;15.05;9.98;;;512.00;2380.80;;;;;;5052872;28;20013;-71
2023/09/01 02:18:40;;;;;;;18.45;11.88;;;487.30;2380.80;;;;;;5052553;28;20028;-71
2023/09/01 02:21:06;;;;;;;13.68;10.65;;;487.30;2380.80;;;;;;5052713;28;20028;-70
2023/09/01 02:23:31;;;;;;;14.73;10.75;;;487.20;2380.80;;;;;;5055976;28;20025;-71
2023/09/01 02:25:57;;;;;;;15.13;11.27;;;487.10;2380.80;;;;;;5056671;28;20021;-71
2023/09/01 02:28:23;;;;;;;14.70;11.13;;;487.10;2380.80;;;;;;5056700;28;20383;-70
2023/09/01 02:30:49;;;;;;;14.88;10.70;;;487.10;2380.80;;;;;;5056274;28;20024;-71
2023/09/01 02:33:14;;;;;;;15.68;11.77;;;487.10;2380.80;;;;;;5055274;28;20103;-71
2023/09/01 02:35:44;;;;;;;16.85;12.05;;;487.10;2380.80;;;;;;5056160;28;20087;-72
2023/09/01 02:38:13;;;;;;;13.75;11.10;;;487.10;2380.80;;;;;;5056498;28;20059;-71
2023/09/01 02:40:39;;;;;;;17.52;11.48;;;487.10;2380.80;;;;;;5055223;28;20057;-71
2023/09/01 02:43:05;;;;;;;17.15;11.50;;;487.10;2380.80;;;;;;5056392;28;20021;-70
2023/09/01 02:45:31;;;;;;;15.48;10.57;;;487.10;2380.80;;;;;;5056353;28;20043;-71
2023/09/01 02:47:59;;;;;;;16.95;11.65;;;487.10;2380.80;;;;;;5056216;28;20351;-71
2023/09/01 02:50:25;;;;;;;15.75;11.88;;;487.10;2380.80;;;;;;5056060;28;20381;-71
2023/09/01 02:52:51;;;;;;;17.48;11.88;;;487.10;2380.80;;;;;;5056263;28;20021;-71
2023/09/01 02:55:17;;;;;;;13.75;10.80;;;487.10;2380.80;;;;;;5056031;28;20091;-71
2023/09/01 02:57:44;;;;;;;14.18;11.05;;;487.10;2380.80;;;;;;5056129;28;20020;-70
2023/09/01 03:00:21;;;;;;;15.73;11.40;;;487.10;2380.80;;;;;;5055892;28;20031;-71
2023/09/01 03:02:47;;;;;;;17.55;11.40;;;487.10;2380.80;;;;;;5055774;28;20064;-71
2023/09/01 03:05:13;;;;;;;14.05;10.73;;;487.20;2380.80;;;;;;5055830;28;20078;-72
2023/09/01 03:07:40;;;;;;;15.77;10.80;;;487.10;2380.80;;;;;;5055903;28;20025;-72
2023/09/01 03:10:07;;;;;;;14.32;10.60;;;487.10;2380.80;;;;;;5055761;28;20477;-71
2023/09/01 03:12:36;;;;;;;12.88;10.32;;;487.10;2380.80;;;;;;5055995;28;20036;-72
2023/09/01 03:15:02;;;;;;;13.23;10.65;;;487.10;2380.80;;;;;;5055806;28;20029;-71
2023/09/01 03:17:27;;;;;;;15.13;10.55;;;487.10;2380.80;;;;;;5055560;28;20025;-71
2023/09/01 03:19:53;;;;;;;13.95;10.00;;;487.10;2380.80;;;;;;5055711;28;20036;-71
2023/09/01 03:22:19;;;;;;;16.17;9.88;;;487.10;2380.80;;;;;;5054235;28;20048;-71
2023/09/01 03:24:45;;;;;;;14.60;10.23;;;487.10;2380.80;;;;;;5055628;28;20029;-71
2023/09/01 03:27:10;;;;;;;12.23;10.27;;;487.00;2380.80;;;;;;5055744;28;20526;-72
2023/09/01 03:29:36;;;;;;;13.73;10.02;;;487.10;2380.80;;;;;;5055500;28;20407;-71
2023/09/01 03:32:02;;;;;;;15.98;11.20;;;487.10;2380.80;;;;;;5055170;28;20511;-72
2023/09/01 03:34:28;;;;;;;14.57;9.02;;;487.00;2380.80;;;;;;5054210;28;20043;-71
2023/09/01 03:36:55;;;;;;;14.50;9.90;;;487.00;2380.80;;;;;;5055376;28;20104;-71
2023/09/01 03:39:21;;;;;;;13.00;10.25;;;487.00;2380.80;;;;;;5055487;28;20056;-71
2023/09/01 03:41:47;;;;;;;11.73;9.27;;;487.10;2380.80;;;;;;5055241;28;20092;-71
2023/09/01 03:44:12;;;;;;;12.88;10.18;;;487.10;2380.80;;;;;;5055291;28;20484;-72
2023/09/01 03:46:38;;;;;;;12.93;9.55;;;487.10;2380.80;;;;;;5055164;28;20029;-72
2023/09/01 03:49:04;;;;;;;16.10;10.00;;;487.10;2380.80;;;;;;5055148;28;20029;-72
2023/09/01 03:51:29;;;;;;;14.50;9.82;;;487.20;2380.80;;;;;;5055180;28;20099;-71
2023/09/01 03:53:55;;;;;;;14.95;9.40;;;487.10;2380.80;;;;;;5055090;28;20037;-71
2023/09/01 03:56:22;;;;;;;13.05;10.13;;;487.10;2380.80;;;;;;5054986;28;20032;-72
2023/09/01 03:58:48;;;;;;;13.13;9.65;;;487.10;2380.80;;;;;;5054871;28;20021;-71
2023/09/01 04:01:14;;;;;;;13.95;10.52;;;487.10;2380.80;;;;;;5053153;28;20132;-71
2023/09/01 04:03:45;;;;;;;17.13;10.05;;;487.00;2380.80;;;;;;5054842;28;20100;-71
2023/09/01 04:06:11;;;;;;;13.40;9.90;;;487.00;2380.80;;;;;;5046966;28;20033;-71
2023/09/01 04:08:37;;;;;;;12.38;10.55;;;487.00;2380.80;;;;;;5039770;28;20037;-70
2023/09/01 04:11:03;;;;;;;12.75;9.60;;;487.00;2380.80;;;;;;5037597;28;20059;-71
2023/09/01 04:13:33;;;;;;;13.20;9.93;;;487.00;2380.80;;;;;;5044220;28;20082;-70
2023/09/01 04:15:59;;;;;;;14.73;10.88;;;487.00;2380.80;;;;;;5042659;28;20204;-71
2023/09/01 04:18:24;;;;;;;14.02;10.43;;;487.00;2380.80;;;;;;5042499;28;20021;-72
2023/09/01 04:20:51;;;;;;;12.55;10.35;;;487.00;2380.80;;;;;;5041447;28;20474;-70
2023/09/01 04:23:18;;;;;;;15.40;10.73;;;487.00;2380.80;;;;;;5042089;28;20021;-71
2023/09/01 04:25:45;;;;;;;13.98;10.35;;;487.00;2380.80;;;;;;5043985;28;20142;-72
2023/09/01 04:28:11;;;;;;;17.17;10.52;;;487.00;2380.80;;;;;;5039635;28;20049;-71
2023/09/01 04:30:37;;;;;;;13.07;10.15;;;487.00;2380.80;;;;;;5041672;28;20021;-71
2023/09/01 04:33:06;;;;;;;13.50;9.98;;;487.00;2380.80;;;;;;5039746;28;20055;-72
2023/09/01 04:35:33;;;;;;;13.50;10.20;;;487.10;2380.80;;;;;;5036479;28;20186;-74
2023/09/01 04:37:59;;;;;;;12.30;9.57;;;487.10;2380.80;;;;;;5042818;28;20032;-73
2023/09/01 04:40:25;;;;;;;12.85;9.68;;;487.10;2380.80;;;;;;5039346;28;20029;-73
2023/09/01 04:42:51;;;;;;;13.57;10.43;;;487.00;2380.80;;;;;;5039296;28;20420;-73
2023/09/01 04:45:17;;;;;;;13.02;10.10;;;487.00;2380.80;;;;;;5036570;28;20037;-74
2023/09/01 04:47:43;;;;;;;11.75;9.57;;;487.00;2380.80;;;;;;5040572;28;20080;-73
2023/09/01 04:50:09;;;;;;;12.85;10.13;;;487.10;2380.80;;;;;;5040188;28;20029;-73
2023/09/01 04:52:36;;;;;;;16.13;10.90;;;487.10;2380.80;;;;;;5039688;28;20030;-73
2023/09/01 04:55:03;;;;;;;14.27;11.88;;;487.10;2380.80;;;;;;5037932;28;20461;-73
2023/09/01 04:57:29;;;;;;;22.77;12.98;;;487.10;2380.80;;;;;;5039273;28;20072;-72
2023/09/01 04:59:54;;;;;;;12.68;9.98;;;487.10;2380.80;;;;;;5039873;28;20429;-74
2023/09/01 05:02:20;;;;;;;13.27;11.32;;;487.10;2380.80;;;;;;5043504;28;20404;-75
2023/09/01 05:04:46;;;;;;;15.88;11.20;;;487.10;2380.80;;;;;;5043037;28;20033;-73
2023/09/01 05:07:11;;;;;;;14.52;10.98;;;487.10;2380.80;;;;;;5038816;28;20068;-73
2023/09/01 05:09:37;;;;;;;16.60;10.57;;;487.20;2380.80;;;;;;5043507;28;20381;-73
2023/09/01 05:12:03;;;;;;;13.48;10.65;;;487.10;2380.80;;;;;;5042365;28;20029;-73
2023/09/01 05:14:29;;;;;;;20.98;11.07;;;487.20;2380.80;;;;;;5042025;28;20032;-73
2023/09/01 05:16:56;;;;;;;16.17;11.55;;;487.20;2380.80;;;;;;5039991;28;20020;-75
2023/09/01 05:19:22;;;;;;;15.32;10.90;;;487.20;2380.80;;;;;;5037064;28;20025;-72
2023/09/01 05:21:48;;;;;;;18.73;11.15;;;487.20;2380.80;;;;;;5035679;28;20062;-74
2023/09/01 05:24:14;;;;;;;13.82;10.95;;;487.10;2380.80;;;;;;5037817;28;20033;-73
2023/09/01 05:26:40;;;;;;;16.05;11.43;;;487.30;2380.80;;;;;;5039778;28;20378;-71
2023/09/01 05:29:06;;;;;;;14.45;11.00;;;512.00;2380.80;;;;;;5038670;28;20021;-72
2023/09/01 05:31:32;;;;;;;14.57;10.57;;;487.30;2380.80;;;;;;5039652;28;20040;-74
2023/09/01 05:33:57;;;;;;;13.20;10.82;;;512.00;2380.80;;;;;;5039873;28;20452;-71
2023/09/01 05:36:23;;;;;;;20.30;11.73;;;512.00;2380.80;;;;;;5038196;28;20021;-71
2023/09/01 05:38:49;;;;;;;16.98;11.32;;;512.00;2380.80;;;;;;5040793;28;20027;-73
2023/09/01 05:41:14;;;;;;;12.20;9.98;;;487.30;2380.80;;;;;;5035234;28;20470;-70
2023/09/01 05:43:40;;;;;;;17.48;10.18;;;512.10;2380.80;;;;;;5040102;28;20029;-72
2023/09/01 05:46:06;;;;;;;13.80;11.13;;;512.10;2380.80;;;;;;5041008;28;20359;-71
2023/09/01 05:48:32;;;;;;;16.45;10.73;;;512.20;2380.80;;;;;;5035714;28;20082;-73
2023/09/01 05:50:57;;;;;;;14.18;9.52;;;512.30;2380.80;;;;;;5036067;28;20395;-71
2023/09/01 05:53:25;;;;;;;12.00;9.88;;;512.50;2380.80;;;;;;5033504;28;20417;-73
2023/09/01 05:55:51;;;;;;;18.33;10.70;;;512.60;2380.80;;;;;;5034795;28;20036;-72
2023/09/01 05:58:17;;;;;;;12.65;10.25;;;512.70;2380.80;;;;;;5041772;28;20022;-71
2023/09/01 06:00:43;;;;;;;12.07;9.52;;;512.80;2380.80;;;;;;5032454;28;20437;-72
2023/09/01 06:03:08;;;;;;;16.95;10.98;;;512.90;2380.80;;;;;;5045625;28;21010;-73
2023/09/01 06:05:34;;;;;;;12.23;10.15;;;512.90;2380.80;;;;;;5036807;28;20025;-71
2023/09/01 06:07:59;;;;;;;12.98;8.93;;;512.90;2380.80;;;;;;5037533;28;20025;-72
2023/09/01 06:10:25;;;;;;;13.27;8.95;;;512.90;2380.80;;;;;;5046070;28;20033;-73
2023/09/01 06:12:51;;;;;;;12.80;9.35;;;537.70;2406.40;;;;;;5037994;28;20061;-72
2023/09/01 06:15:17;;;;;;;13.77;8.75;;;537.90;2406.40;;;;;;5037751;28;20034;-73
2023/09/01 06:17:42;;;;;;;11.27;8.10;;;538.00;2406.40;;;;;;5037384;28;20025;-72
2023/09/01 06:20:09;;;;;;;12.18;8.60;;;538.00;2406.40;;;;;;5046736;28;20061;-72
2023/09/01 06:22:34;;;;;;;12.88;8.93;;;538.10;2406.40;;;;;;5038850;28;20053;-71
2023/09/01 06:25:01;;;;;;;11.23;8.77;;;538.30;2406.40;;;;;;5045993;28;20091;-72
2023/09/01 06:27:26;;;;;;;12.85;8.35;;;538.40;2406.40;;;;;;5036524;28;20030;-72
2023/09/01 06:29:55;;;;;;;10.68;8.18;;;538.40;2406.40;;;;;;5038496;28;20040;-72
2023/09/01 06:32:20;;;;;;;11.20;7.85;;;538.40;2406.40;;;;;;5042878;28;20115;-72
2023/09/01 06:34:46;;;;;;;9.07;7.95;;;563.20;2432.00;;;;;;5037808;28;20482;-72
2023/09/01 06:37:12;;;;;;;12.13;7.75;;;563.30;2432.00;;;;;;5037191;28;20026;-72
2023/09/01 06:39:37;;;;;;;10.45;7.97;;;563.40;2432.00;;;;;;5037400;28;20025;-72
2023/09/01 06:42:03;;;;;;;10.65;7.75;;;563.50;2432.00;;;;;;5035128;28;20021;-73
2023/09/01 06:44:30;;;;;;;9.85;8.48;;;563.50;2432.00;;;;;;5044561;28;20029;-71
2023/09/01 06:46:55;;;;;;;13.60;7.88;;;563.60;2432.00;;;;;;5033721;28;20105;-71
2023/09/01 06:49:21;;;;;;;10.65;7.43;;;563.60;2432.00;;;;;;5033585;28;20101;-71
2023/09/01 06:51:47;;;;;;;10.82;8.68;;;563.60;2432.00;;;;;;5036424;28;20029;-72
2023/09/01 06:54:12;;;;;;;14.27;7.22;;;563.90;2432.00;;;;;;5037477;28;20048;-73
2023/09/01 06:56:38;;;;;;;10.55;7.95;;;564.10;2432.00;;;;;;5036583;28;20185;-75
2023/09/01 06:59:04;;;;;;;11.50;7.18;;;588.90;2432.00;;;;;;5038791;28;20381;-73
2023/09/01 07:01:29;;;;;;;8.40;6.45;;;589.00;2432.00;;;;;;5036602;28;20033;-74
2023/09/01 07:03:55;;;;;;;9.50;7.10;;;589.00;2432.00;;;;;;5035924;28;20466;-73
2023/09/01 07:06:21;;;;;;;10.30;6.80;;;589.30;2432.00;;;;;;5033776;28;20410;-73
2023/09/01 07:08:47;;;;;;;11.63;6.85;;;589.50;2432.00;;;;;;5041883;28;20040;-73
2023/09/01 07:11:14;;;;;;;8.75;6.85;;;589.70;2432.00;;;;;;5044012;28;20100;-74
2023/09/01 07:13:41;;;;;;;10.77;7.40;;;;;;;;;;5043374;28;20516;-73
2023/09/01 07:16:06;;;;;;;9.93;7.10;;;614.70;2432.00;;;;;;5036500;28;20021;-73
2023/09/01 07:18:33;;;;;;;11.80;6.22;;;614.80;2432.00;;;;;;5046889;28;20382;-72
2023/09/01 07:21:00;;;;;;;12.45;8.00;;;614.80;2432.00;;;;;;5036778;28;20022;-73
2023/09/01 07:23:26;;;;;;;22.10;16.83;;;615.30;2432.00;;;;;;5039368;28;20035;-72
2023/09/01 07:25:55;;;;;;;14.10;6.85;;;640.00;2432.00;;;;;;5045037;28;20500;-72
2023/09/01 07:28:22;;;;;;;7.18;5.45;;;640.20;2432.00;;;;;;5046929;28;20507;-74
2023/09/01 07:30:48;;;;;;;9.32;5.50;;;640.20;2432.00;;;;;;5039744;28;20028;-77
2023/09/01 07:33:15;;;;;;;14.00;5.82;;;640.50;2432.00;;;;;;5039071;28;20049;-76
2023/09/01 07:35:48;;;;;;;6.50;5.13;;;640.40;2432.00;;;;;;5035242;28;20029;-75
2023/09/01 07:38:14;;;;;;;10.15;5.75;;;640.60;2432.00;;;;;;5037452;28;20026;-75
2023/09/01 07:40:41;;;;;;;7.68;5.30;;;640.70;2432.00;;;;;;5043045;28;20355;-76
2023/09/01 07:43:07;;;;;;;5.95;4.95;;;640.80;2432.00;;;;;;5036805;28;20501;-77
2023/09/01 07:45:32;;;;;;;11.65;4.93;;;665.60;2432.00;;;;;;5046506;28;20026;-77
2023/09/01 07:47:58;;;;;;;6.40;4.95;;;640.90;2432.00;;;;;;5042456;28;20028;-79
2023/09/01 07:50:24;;;;;;;7.38;4.80;;;640.90;2432.00;;;;;;5037553;28;20094;-74
2023/09/01 07:52:51;;;;;;;5.00;3.70;;;665.80;2432.00;;;;;;5039784;28;20021;-73
2023/09/01 07:55:17;;;;;;;14.45;5.10;;;665.70;2432.00;;;;;;5039017;28;20033;-74
2023/09/01 07:57:43;;;;;;;4.30;3.60;;;665.90;2432.00;;;;;;5042852;28;20048;-73
2023/09/01 08:00:09;;;;;;;4.80;3.78;;;665.90;2432.00;;;;;;5040018;28;20107;-73
2023/09/01 08:02:35;;;;;;;5.03;3.75;;;666.10;2432.00;;;;;;5038543;28;20036;-73
2023/09/01 08:05:03;;;;;;;7.93;3.60;;;666.40;2329.60;;;;;;5038178;28;20029;-73
2023/09/01 08:07:30;;;;;;;5.53;3.35;;;691.20;2304.00;;;;;;5039590;28;20026;-73
2023/09/01 08:09:56;;;;;;;8.68;3.25;;;691.30;2252.80;;;;;;5044263;28;20018;-73
2023/09/01 08:12:22;;;;;;;5.55;3.40;;;691.60;2150.40;;;;;;5037875;28;20052;-74
2023/09/01 08:14:48;;;;;;;4.53;3.85;;;691.70;2176.00;;;;;;5042248;28;20478;-74
2023/09/01 08:17:13;;;;;;;6.45;4.25;;;691.80;2176.00;;;;;;5038881;28;20033;-74
2023/09/01 08:19:40;;;;;;;6.32;3.75;;;691.70;2150.40;;;;;;5037187;28;20045;-73
2023/09/01 08:22:06;;;;;;;4.78;3.47;;;691.90;2099.20;;;;;;5039152;28;20022;-73
2023/09/01 08:24:32;;;;;;;4.63;3.45;;;691.60;2124.80;;;;;;5039195;28;20835;-73
2023/09/01 08:26:58;;;;;;;5.88;3.33;;;666.50;2176.00;;;;;;5037322;28;20026;-75
2023/09/01 08:29:23;;;;;;;6.18;4.00;;;692.00;2099.20;;;;;;5037707;28;20491;-72
2023/09/01 08:31:49;;;;;;;4.72;3.28;;;691.90;2124.80;;;;;;5038068;28;20053;-73
2023/09/01 08:34:15;;;;;;;6.70;3.08;;;717.10;2073.60;;;;;;5041687;28;20033;-74
2023/09/01 08:36:43;;;;;;;7.90;3.75;;;717.40;1971.20;;;;;;5038577;28;20066;-75
2023/09/01 08:39:08;;;;;;;5.28;3.50;;;717.70;1920.00;;;;;;5041682;28;20051;-74
2023/09/01 08:41:35;;;;;;;5.60;3.78;;;742.40;1945.60;;;;;;5037235;28;20474;-74
2023/09/01 08:44:05;;;;;;;5.40;4.03;;;;;;;;;;5039176;28;20031;-74
2023/09/01 08:46:32;;;;;;;8.52;3.80;;;742.80;1945.60;;;;;;5033700;28;20104;-74
2023/09/01 08:48:58;;;;;;;4.00;3.17;;;742.80;1920.00;;;;;;5038103;28;20139;-74
2023/09/01 08:51:25;;;;;;;5.68;3.90;;;742.50;1945.60;;;;;;5046753;28;20029;-75
2023/09/01 08:53:51;;;;;;;5.07;3.40;;;742.80;1868.80;;;;;;5023961;28;20041;-75
2023/09/01 08:56:17;;;;;;;5.28;3.47;;;742.50;1868.80;;;;;;5041612;28;20180;-74
2023/09/01 08:58:44;;;;;;;5.22;3.30;;;717.50;1920.00;;;;;;5035225;28;20517;-75
2023/09/01 09:01:10;;;;;;;5.05;3.42;;;717.40;1894.40;;;;;;5038101;28;20025;-74
2023/09/01 09:03:36;;;;;;;6.82;3.20;;;742.40;1868.80;;;;;;5035815;28;20021;-74
2023/09/01 09:06:03;;;;;;;5.85;3.20;;;742.80;1817.60;;;;;;5039641;28;20021;-74
2023/09/01 09:08:29;;;;;;;5.93;3.65;;;742.90;1766.40;;;;;;5035698;28;20067;-75
2023/09/01 09:10:55;;;;;;;8.80;3.45;;;743.10;1740.80;;;;;;5037582;28;20079;-74
2023/09/01 09:13:28;;;;;;;4.97;3.30;;;743.30;1689.60;;;;;;5041493;28;20037;-74
2023/09/01 09:16:14;;;;;;;4.32;3.40;;;;;;;;;;5033785;28;20029;-75
2023/09/01 09:18:42;;;;;;;3.97;2.97;;;768.40;1689.60;;;;;;5042762;28;20033;-74
2023/09/01 09:21:28;;;;;;;7.90;3.47;;;768.40;1664.00;;;;;;5038863;28;20040;-74
2023/09/01 09:24:02;;;;;;;4.25;3.05;;;768.20;1638.40;;;;;;5026177;28;20031;-74
2023/09/01 09:26:30;;;;;;;4.32;3.08;;;768.40;1638.40;;;;;;5030859;28;20017;-74
2023/09/01 09:29:06;;;;;;;7.38;3.47;;;768.60;1612.80;;;;;;5037213;28;20028;-73
2023/09/01 09:31:44;;;;;;;6.68;4.70;;;768.70;1638.40;;;;;;5039051;28;20061;-73
2023/09/01 09:34:17;;;;;;;6.10;4.05;;;768.90;1612.80;;;;;;5034923;28;20163;-75
2023/09/01 09:36:47;;;;;;;4.32;3.13;;;793.70;1638.40;;;;;;5038317;28;20024;-75
2023/09/01 09:39:41;;;;;;;4.43;3.40;;;768.20;1612.80;;;;;;5034417;28;20398;-74
2023/09/01 09:42:07;;;;;;;4.78;3.47;;;768.30;1664.00;;;;;;5037981;28;20132;-74
2023/09/01 09:44:34;;;;;;;4.20;2.72;;;768.40;1689.60;;;;;;5042159;28;20199;-75
2023/09/01 09:47:01;;;;;;;3.53;2.88;;;768.20;1664.00;;;;;;5036962;28;20021;-75
2023/09/01 09:49:31;;;;;;;8.23;3.47;;;768.10;1715.20;;;;;;5040113;28;20414;-74
2023/09/01 09:52:00;;;;;;;6.30;3.42;;;768.70;1664.00;;;;;;5044946;28;20025;-73
2023/09/01 09:54:29;;;;;;;4.53;3.28;;;793.80;1715.20;;;;;;5044120;28;20034;-75
2023/09/01 09:56:57;;;;;;;4.38;3.20;;;794.20;1638.40;;;;;;5035336;28;20033;-75
2023/09/01 10:00:10;;;;;;;4.45;3.45;;;768.90;1638.40;;;;;;5037833;28;20021;-74
2023/09/01 10:02:42;;;;;;;6.65;3.05;;;768.10;1638.40;;;;;;5022974;28;20057;-74
2023/09/01 10:05:11;;;;;;;7.78;3.38;;;742.90;1664.00;;;;;;5017388;28;20041;-74
2023/09/01 10:07:36;;;;;;;4.80;3.10;;;742.60;1638.40;;;;;;5031383;28;20127;-75
2023/09/01 10:10:03;;;;;;;4.05;2.78;;;742.80;1664.00;;;;;;5017626;28;20063;-73
2023/09/01 10:12:29;;;;;;;4.82;3.50;;;742.50;1715.20;;;;;;5015408;28;20081;-74
2023/09/01 10:14:57;;;;;;;3.95;2.92;;;743.10;1689.60;;;;;;5031453;28;20041;-73
2023/09/01 10:17:24;;;;;;;6.55;4.03;;;768.00;1638.40;;;;;;5021631;28;20030;-74
2023/09/01 10:19:50;;;;;;;3.83;3.00;;;768.70;1587.20;;;;;;5009315;28;20076;-73
2023/09/01 10:22:19;;;;;;;8.30;3.45;;;793.70;1587.20;;;;;;5017685;28;20085;-74
2023/09/01 10:25:15;;;;;;;8.80;3.70;;;768.70;1561.60;;;;;;5012406;28;20029;-75
2023/09/01 10:28:07;;;;;;;8.35;3.72;;;768.50;1561.60;;;;;;5029668;28;20611;-75
2023/09/01 10:30:35;;;;;;;7.53;3.60;;;768.70;1587.20;;;;;;4965732;28;20035;-74
2023/09/01 10:33:09;;;;;;;5.10;3.42;;;768.40;1612.80;;;;;;4962921;28;20054;-75
2023/09/01 10:35:40;;;;;;;4.80;3.22;;;793.80;1587.20;;;;;;4959624;28;20046;-75
2023/09/01 10:38:34;;;;;;;5.82;3.45;;;794.20;1638.40;;;;;;4999455;28;20050;-74
2023/09/01 10:40:59;;;;;;;8.35;3.70;;;768.50;1587.20;;;;;;5000832;28;20486;-73
2023/09/01 10:43:34;;;;;;;4.70;2.95;;;743.20;1664.00;;;;;;4976962;28;20030;-73
2023/09/01 10:46:14;;;;;;;6.43;3.33;;;743.10;1664.00;;;;;;4999950;28;20514;-74
2023/09/01 10:49:00;;;;;;;4.88;2.90;;;743.10;1638.40;;;;;;5007242;28;20045;-73
2023/09/01 10:51:30;;;;;;;13.40;3.63;;;768.20;1612.80;;;;;;5004566;28;20030;-74
2023/09/01 10:53:59;;;;;;;4.82;2.95;;;743.30;1638.40;;;;;;4987421;28;20064;-72
2023/09/01 10:56:26;;;;;;;4.45;3.47;;;742.90;1689.60;;;;;;5002976;28;20479;-72
2023/09/01 10:58:56;;;;;;;11.70;3.45;;;743.00;1664.00;;;;;;5003242;28;20022;-73
2023/09/01 11:01:36;;;;;;;4.32;2.90;;;768.10;1612.80;;;;;;4991299;28;20321;-72
2023/09/01 11:04:13;;;;;;;5.47;3.22;;;768.90;1561.60;;;;;;4998600;28;20487;-72
2023/09/01 11:07:00;;;;;;;3.67;2.58;;;768.90;1561.60;;;;;;5001627;28;20038;-72
2023/09/01 11:09:35;;;;;;;5.45;2.95;;;768.60;1536.00;;;;;;5040729;28;20016;-72
2023/09/01 11:12:05;;;;;;;4.68;3.08;;;768.90;1510.40;;;;;;5045721;28;20029;-73
2023/09/01 11:14:32;;;;;;;9.57;3.47;;;794.00;1536.00;;;;;;5034198;28;20029;-72
2023/09/01 11:17:00;;;;;;;4.60;2.90;;;794.30;1561.60;;;;;;5040541;28;20025;-73
2023/09/01 11:19:26;;;;;;;5.50;3.03;;;819.30;1587.20;;;;;;5039499;28;20029;-73
2023/09/01 11:21:52;;;;;;;3.70;2.78;;;819.50;1536.00;;;;;;5045331;28;20022;-73
2023/09/01 11:24:21;;;;;;;8.55;3.05;;;819.60;1561.60;;;;;;5048497;28;20029;-73
2023/09/01 11:26:49;;;;;;;3.88;2.50;;;819.70;1536.00;;;;;;5042700;28;20036;-73
2023/09/01 11:29:14;;;;;;;5.15;2.92;;;819.70;1510.40;;;;;;5042540;28;20067;-73
2023/09/01 11:31:42;;;;;;;4.47;3.08;;;819.80;1510.40;;;;;;5038128;28;20038;-72
2023/09/01 11:34:08;;;;;;;4.68;2.90;;;820.10;1433.60;;;;;;5041318;28;20052;-72
2023/09/01 11:36:43;;;;;;;6.40;2.97;;;820.10;1459.20;;;;;;5044480;28;20129;-73
2023/09/01 11:39:09;;;;;;;3.88;2.70;;;820.10;1382.40;;;;;;5034830;28;20033;-72
2023/09/01 11:41:35;;;;;;;4.15;2.67;;;819.80;1433.60;;;;;;5039315;28;20117;-72
2023/09/01 11:44:02;;;;;;;3.72;2.55;;;844.80;1459.20;;;;;;5042698;28;20031;-74
2023/09/01 11:46:32;;;;;;;3.97;2.83;;;820.10;1382.40;;;;;;5040338;28;20075;-72
2023/09/01 11:48:58;;;;;;;5.20;2.60;;;819.30;1408.00;;;;;;5040708;28;20029;-72
2023/09/01 11:51:37;;;;;;;4.10;2.55;;;794.10;1484.80;;;;;;5044710;28;20022;-72
2023/09/01 11:54:03;;;;;;;4.47;2.80;;;768.90;1536.00;;;;;;5048999;28;20112;-73
2023/09/01 11:56:29;;;;;;;5.13;2.78;;;768.40;1459.20;;;;;;5035310;28;20094;-72
2023/09/01 11:58:58;;;;;;;3.90;2.58;;;793.80;1510.40;;;;;;5043775;28;20051;-72
2023/09/01 12:01:29;;;;;;;5.00;2.65;;;794.50;1433.60;;;;;;5038941;28;20052;-72
2023/09/01 12:04:06;;;;;;;4.53;2.67;;;819.30;1433.60;;;;;;5043385;28;20388;-72
2023/09/01 12:06:32;;;;;;;5.30;2.33;;;819.30;1408.00;;;;;;5033601;28;20088;-72
2023/09/01 12:09:15;;;;;;;3.92;2.65;;;819.50;1382.40;;;;;;5038891;28;20025;-73
2023/09/01 12:11:53;;;;;;;7.18;2.75;;;819.60;1356.80;;;;;;5042047;28;20021;-72
2023/09/01 12:14:30;;;;;;;3.20;2.05;;;819.70;1408.00;;;;;;5038327;28;20400;-72